sensor_id;sensor_type;location;lat;lon;timestamp;pressure;altitude;pressure_sealevel;temperature;humidity
62980;BME280;49075;53.988;27.678;2022-08-19T00:03:07;988.5;;;19.4;61.6
62980;BME280;49075;53.988;27.678;2022-08-19T00:08:35;988.5;;;19.3;61.7
62980;BME280;49075;53.988;27.678;2022-08-19T00:13:07;988.4;;;19.3;61.9
62980;BME280;49075;53.988;27.678;2022-08-19T00:18:07;988.4;;;19.3;61.8
62980;BME280;49075;53.988;27.678;2022-08-19T00:23:11;988.3;;;19.3;62
62980;BME280;49075;53.988;27.678;2022-08-19T00:28:01;988.3;;;19.2;62.1
62980;BME280;49075;53.988;27.678;2022-08-19T00:33:07;988.3;;;19.1;62.7
62980;BME280;49075;53.988;27.678;2022-08-19T00:38:09;988.2;;;19.1;62.3
62980;BME280;49075;53.988;27.678;2022-08-19T00:43:36;988.3;;;19.1;62.5
62980;BME280;49075;53.988;27.678;2022-08-19T00:48:35;988.3;;;19.1;62.6
62980;BME280;49075;53.988;27.678;2022-08-19T00:53:20;988.3;;;19;62.8
62980;BME280;49075;53.988;27.678;2022-08-19T00:58:35;988.3;;;18.9;63.1
62980;BME280;49075;53.988;27.678;2022-08-19T01:03:08;988.3;;;18.9;63.5
62980;BME280;49075;53.988;27.678;2022-08-19T01:08:33;988.3;;;19;63.1
62980;BME280;49075;53.988;27.678;2022-08-19T01:13:09;988.3;;;19;63.3
62980;BME280;49075;53.988;27.678;2022-08-19T01:18:15;988.3;;;19.1;63
62980;BME280;49075;53.988;27.678;2022-08-19T01:23:05;988.3;;;19;63.4
62980;BME280;49075;53.988;27.678;2022-08-19T01:28:21;988.3;;;19;63.3
62980;BME280;49075;53.988;27.678;2022-08-19T01:33:29;988.3;;;18.9;63.4
62980;BME280;49075;53.988;27.678;2022-08-19T01:38:00;988.3;;;18.9;63.5
62980;BME280;49075;53.988;27.678;2022-08-19T01:43:01;988.4;;;18.8;63.6
62980;BME280;49075;53.988;27.678;2022-08-19T01:48:19;988.4;;;18.7;63.9
62980;BME280;49075;53.988;27.678;2022-08-19T01:53:09;988.4;;;18.5;64.4
62980;BME280;49075;53.988;27.678;2022-08-19T01:58:17;988.5;;;18.3;65.5
62980;BME280;49075;53.988;27.678;2022-08-19T02:02:59;988.5;;;18;66.7
62980;BME280;49075;53.988;27.678;2022-08-19T02:08:35;988.4;;;17.9;66.7
62980;BME280;49075;53.988;27.678;2022-08-19T02:13:35;988.5;;;17.8;67.3
62980;BME280;49075;53.988;27.678;2022-08-19T02:18:01;988.5;;;17.8;67.1
62980;BME280;49075;53.988;27.678;2022-08-19T02:23:10;988.5;;;17.8;67.4
62980;BME280;49075;53.988;27.678;2022-08-19T02:28:23;988.5;;;17.8;67.1
62980;BME280;49075;53.988;27.678;2022-08-19T02:33:09;988.5;;;17.7;67.6
62980;BME280;49075;53.988;27.678;2022-08-19T02:38:09;988.5;;;17.6;67.7
62980;BME280;49075;53.988;27.678;2022-08-19T02:43:17;988.5;;;17.5;68.3
62980;BME280;49075;53.988;27.678;2022-08-19T02:48:07;988.6;;;17.6;68.1
62980;BME280;49075;53.988;27.678;2022-08-19T02:53:35;988.6;;;17.6;67.8
62980;BME280;49075;53.988;27.678;2022-08-19T02:58:11;988.6;;;17.5;68.5
62980;BME280;49075;53.988;27.678;2022-08-19T03:03:07;988.6;;;17.3;68.9
62980;BME280;49075;53.988;27.678;2022-08-19T03:08:37;988.5;;;17.3;69.4
62980;BME280;49075;53.988;27.678;2022-08-19T03:13:37;988.5;;;17.1;70.4
62980;BME280;49075;53.988;27.678;2022-08-19T03:18:37;988.6;;;17.1;70.3
62980;BME280;49075;53.988;27.678;2022-08-19T03:23:09;988.6;;;17;70.4
62980;BME280;49075;53.988;27.678;2022-08-19T03:28:39;988.6;;;17.1;70.3
62980;BME280;49075;53.988;27.678;2022-08-19T03:32:59;988.7;;;17.1;69.9
62980;BME280;49075;53.988;27.678;2022-08-19T03:38:40;988.8;;;17.1;70.1
62980;BME280;49075;53.988;27.678;2022-08-19T03:43:11;988.8;;;17.1;69.8
62980;BME280;49075;53.988;27.678;2022-08-19T03:48:11;988.8;;;17.2;69.8
62980;BME280;49075;53.988;27.678;2022-08-19T03:53:09;988.9;;;17.3;69.4
62980;BME280;49075;53.988;27.678;2022-08-19T03:58:09;988.9;;;17.4;68.9
62980;BME280;49075;53.988;27.678;2022-08-19T04:03:07;989;;;17.5;68.5
62980;BME280;49075;53.988;27.678;2022-08-19T04:08:19;989.1;;;17.6;68.2
62980;BME280;49075;53.988;27.678;2022-08-19T04:13:17;989.1;;;17.7;67.8
62980;BME280;49075;53.988;27.678;2022-08-19T04:18:39;989.1;;;17.9;67
62980;BME280;49075;53.988;27.678;2022-08-19T04:23:07;989.1;;;18.1;66.2
62980;BME280;49075;53.988;27.678;2022-08-19T04:28:07;989.1;;;18.4;65.3
62980;BME280;49075;53.988;27.678;2022-08-19T04:33:09;989.2;;;18.6;64.5
62980;BME280;49075;53.988;27.678;2022-08-19T04:37:59;989.2;;;18.8;63.5
62980;BME280;49075;53.988;27.678;2022-08-19T04:43:17;989.2;;;19.2;62.5
62980;BME280;49075;53.988;27.678;2022-08-19T04:48:11;989.2;;;19.4;61.4
62980;BME280;49075;53.988;27.678;2022-08-19T04:53:40;989.2;;;19.7;60.6
62980;BME280;49075;53.988;27.678;2022-08-19T04:58:11;989.3;;;19.9;59.7
62980;BME280;49075;53.988;27.678;2022-08-19T05:03:13;989.3;;;20.2;58.6
62980;BME280;49075;53.988;27.678;2022-08-19T05:08:37;989.3;;;20.6;57.7
62980;BME280;49075;53.988;27.678;2022-08-19T05:13:09;989.3;;;21;56.3
62980;BME280;49075;53.988;27.678;2022-08-19T05:18:01;989.2;;;21.3;55.5
62980;BME280;49075;53.988;27.678;2022-08-19T05:23:39;989.2;;;21.5;54.2
62980;BME280;49075;53.988;27.678;2022-08-19T05:28:21;989.2;;;21.9;53
62980;BME280;49075;53.988;27.678;2022-08-19T05:33:37;989.3;;;22.2;52.8
62980;BME280;49075;53.988;27.678;2022-08-19T05:38:07;989.3;;;22.5;51.6
62980;BME280;49075;53.988;27.678;2022-08-19T05:43:15;989.4;;;22.7;51.5
62980;BME280;49075;53.988;27.678;2022-08-19T05:48:37;989.5;;;22.9;50.6
62980;BME280;49075;53.988;27.678;2022-08-19T05:53:01;989.5;;;23.2;50.2
62980;BME280;49075;53.988;27.678;2022-08-19T05:58:09;989.4;;;23.6;49.2
62980;BME280;49075;53.988;27.678;2022-08-19T06:08:35;989.3;;;24.3;48.2
62980;BME280;49075;53.988;27.678;2022-08-19T06:13:07;989.3;;;24.9;46.6
62980;BME280;49075;53.988;27.678;2022-08-19T06:18:25;989.3;;;25.2;46.3
62980;BME280;49075;53.988;27.678;2022-08-19T06:23:11;989.3;;;25.2;46.3
62980;BME280;49075;53.988;27.678;2022-08-19T06:33:09;989.1;;;27.5;41.4
62980;BME280;49075;53.988;27.678;2022-08-19T06:38:35;989.2;;;28.2;40
62980;BME280;49075;53.988;27.678;2022-08-19T06:43:37;989.2;;;28.7;37.7
62980;BME280;49075;53.988;27.678;2022-08-19T06:48:37;989.3;;;29.2;37.3
62980;BME280;49075;53.988;27.678;2022-08-19T06:53:35;989.2;;;29.5;36
62980;BME280;49075;53.988;27.678;2022-08-19T06:58:07;989.2;;;29.5;35.4
62980;BME280;49075;53.988;27.678;2022-08-19T07:03:33;989.2;;;30;34.1
62980;BME280;49075;53.988;27.678;2022-08-19T07:08:35;989.2;;;30.2;34.2
62980;BME280;49075;53.988;27.678;2022-08-19T07:13:35;989.3;;;30.2;33.8
62980;BME280;49075;53.988;27.678;2022-08-19T07:18:35;989.3;;;30.3;33.2
62980;BME280;49075;53.988;27.678;2022-08-19T07:23:07;989.3;;;30;32.6
62980;BME280;49075;53.988;27.678;2022-08-19T07:28:09;989.3;;;30.4;31.8
62980;BME280;49075;53.988;27.678;2022-08-19T07:33:33;989.3;;;31.1;30.4
62980;BME280;49075;53.988;27.678;2022-08-19T07:38:35;989.3;;;31.6;30.1
62980;BME280;49075;53.988;27.678;2022-08-19T07:43:23;989.3;;;31.7;28.9
62980;BME280;49075;53.988;27.678;2022-08-19T07:48:33;989.3;;;32.1;29.1
62980;BME280;49075;53.988;27.678;2022-08-19T07:53:21;989.2;;;32.3;28.4
62980;BME280;49075;53.988;27.678;2022-08-19T07:58:20;989.2;;;32.5;27.8
62980;BME280;49075;53.988;27.678;2022-08-19T08:03:18;989.2;;;32.4;27.1
62980;BME280;49075;53.988;27.678;2022-08-19T08:08:13;989.2;;;32.3;26.9
62980;BME280;49075;53.988;27.678;2022-08-19T08:13:07;989.2;;;32.3;26.1
62980;BME280;49075;53.988;27.678;2022-08-19T08:18:35;989.2;;;32.7;26.1
62980;BME280;49075;53.988;27.678;2022-08-19T08:23:35;989.2;;;33;25.7
62980;BME280;49075;53.988;27.678;2022-08-19T08:28:09;989.1;;;33.4;25.8
62980;BME280;49075;53.988;27.678;2022-08-19T08:33:11;989.1;;;34.1;25.2
62980;BME280;49075;53.988;27.678;2022-08-19T08:38:01;989.1;;;34.9;24.8
62980;BME280;49075;53.988;27.678;2022-08-19T08:43:03;989.2;;;35.3;23.7
62980;BME280;49075;53.988;27.678;2022-08-19T08:48:18;989.2;;;34.7;23.2
62980;BME280;49075;53.988;27.678;2022-08-19T08:53:01;989.3;;;34.5;23.5
62980;BME280;49075;53.988;27.678;2022-08-19T08:58:39;989.3;;;34.6;23.8
62980;BME280;49075;53.988;27.678;2022-08-19T09:03:03;989.3;;;33.9;24.3
62980;BME280;49075;53.988;27.678;2022-08-19T09:08:39;989.3;;;34.5;24.3
62980;BME280;49075;53.988;27.678;2022-08-19T09:18:09;989.2;;;35;23.8
62980;BME280;49075;53.988;27.678;2022-08-19T09:23:35;989.3;;;34.3;23.7
62980;BME280;49075;53.988;27.678;2022-08-19T09:28:35;989.3;;;34.2;24.6
62980;BME280;49075;53.988;27.678;2022-08-19T09:33:09;989.3;;;34.2;25
62980;BME280;49075;53.988;27.678;2022-08-19T09:38:35;989.2;;;34.7;24.2
62980;BME280;49075;53.988;27.678;2022-08-19T09:43:35;989.1;;;34.4;24.3
62980;BME280;49075;53.988;27.678;2022-08-19T09:48:36;989.1;;;34.7;24.2
62980;BME280;49075;53.988;27.678;2022-08-19T09:53:13;989.1;;;34.8;24.5
62980;BME280;49075;53.988;27.678;2022-08-19T09:58:09;989.1;;;34.8;24.8
62980;BME280;49075;53.988;27.678;2022-08-19T10:03:36;989.2;;;34.6;25.4
62980;BME280;49075;53.988;27.678;2022-08-19T10:08:16;989.1;;;35;25.2
62980;BME280;49075;53.988;27.678;2022-08-19T10:13:35;989.2;;;34.7;25.5
62980;BME280;49075;53.988;27.678;2022-08-19T10:18:11;989.2;;;34.7;25.2
62980;BME280;49075;53.988;27.678;2022-08-19T10:23:36;989.2;;;34.8;25.3
62980;BME280;49075;53.988;27.678;2022-08-19T10:28:35;989.2;;;35.3;24.5
62980;BME280;49075;53.988;27.678;2022-08-19T10:33:33;989.2;;;35.1;24.9
62980;BME280;49075;53.988;27.678;2022-08-19T10:38:01;989.1;;;34.5;25.5
62980;BME280;49075;53.988;27.678;2022-08-19T10:43:15;989.1;;;34.3;25.6
62980;BME280;49075;53.988;27.678;2022-08-19T10:48:09;989.1;;;34.7;25.1
62980;BME280;49075;53.988;27.678;2022-08-19T10:53:03;989.1;;;34.3;25.8
62980;BME280;49075;53.988;27.678;2022-08-19T10:58:10;989;;;33.5;26.2
62980;BME280;49075;53.988;27.678;2022-08-19T11:03:15;989;;;33.6;26
62980;BME280;49075;53.988;27.678;2022-08-19T11:08:17;989;;;33.5;26.2
62980;BME280;49075;53.988;27.678;2022-08-19T11:13:38;989;;;33.7;26.4
62980;BME280;49075;53.988;27.678;2022-08-19T11:18:13;989.1;;;33.3;26.7
62980;BME280;49075;53.988;27.678;2022-08-19T11:23:35;989.1;;;32.9;26.9
62980;BME280;49075;53.988;27.678;2022-08-19T11:28:07;989.1;;;32.6;27.1
62980;BME280;49075;53.988;27.678;2022-08-19T11:32:59;989.1;;;31.9;27.7
62980;BME280;49075;53.988;27.678;2022-08-19T11:38:33;989.1;;;31.5;28.5
62980;BME280;49075;53.988;27.678;2022-08-19T11:42:59;989.1;;;30.9;29.3
62980;BME280;49075;53.988;27.678;2022-08-19T11:48:09;989.1;;;30.3;30.2
62980;BME280;49075;53.988;27.678;2022-08-19T11:53:35;989.1;;;29.7;30.8
62980;BME280;49075;53.988;27.678;2022-08-19T11:58:35;989.2;;;29.1;31.9
62980;BME280;49075;53.988;27.678;2022-08-19T12:03:07;989;;;28.6;32.8
62980;BME280;49075;53.988;27.678;2022-08-19T12:08:35;989;;;28.1;33.7
62980;BME280;49075;53.988;27.678;2022-08-19T12:13:11;989;;;27.8;34.2
62980;BME280;49075;53.988;27.678;2022-08-19T12:18:17;989;;;27.6;35
62980;BME280;49075;53.988;27.678;2022-08-19T12:23:08;989;;;27.3;36
62980;BME280;49075;53.988;27.678;2022-08-19T12:28:22;989;;;27.2;36.3
62980;BME280;49075;53.988;27.678;2022-08-19T12:33:09;989;;;26.8;37.3
62980;BME280;49075;53.988;27.678;2022-08-19T12:38:17;989;;;26.8;37.7
62980;BME280;49075;53.988;27.678;2022-08-19T12:43:07;989;;;26.6;38.1
62980;BME280;49075;53.988;27.678;2022-08-19T12:48:37;989;;;26.5;38.4
62980;BME280;49075;53.988;27.678;2022-08-19T12:53:37;988.9;;;26.4;38.7
62980;BME280;49075;53.988;27.678;2022-08-19T12:58:11;989;;;26.4;39.4
62980;BME280;49075;53.988;27.678;2022-08-19T13:03:11;989.1;;;26.5;38.8
62980;BME280;49075;53.988;27.678;2022-08-19T13:08:37;989;;;26.2;39.5
62980;BME280;49075;53.988;27.678;2022-08-19T13:13:38;989;;;26.3;39.3
62980;BME280;49075;53.988;27.678;2022-08-19T13:18:07;988.9;;;26.4;39
62980;BME280;49075;53.988;27.678;2022-08-19T13:23:15;989;;;26.5;38.8
62980;BME280;49075;53.988;27.678;2022-08-19T13:28:09;988.9;;;26.3;39.6
62980;BME280;49075;53.988;27.678;2022-08-19T13:33:05;988.8;;;26.2;40
62980;BME280;49075;53.988;27.678;2022-08-19T13:38:18;988.8;;;26.2;40.5
62980;BME280;49075;53.988;27.678;2022-08-19T13:43:11;988.8;;;26.1;41
62980;BME280;49075;53.988;27.678;2022-08-19T13:48:17;988.8;;;25.9;41
62980;BME280;49075;53.988;27.678;2022-08-19T13:53:38;988.8;;;26.1;41
62980;BME280;49075;53.988;27.678;2022-08-19T13:58:07;988.8;;;26.1;41
62980;BME280;49075;53.988;27.678;2022-08-19T14:03:23;988.8;;;25.9;40.9
62980;BME280;49075;53.988;27.678;2022-08-19T14:08:37;988.8;;;25.7;41.1
62980;BME280;49075;53.988;27.678;2022-08-19T14:13:18;988.9;;;25.7;41.2
62980;BME280;49075;53.988;27.678;2022-08-19T14:18:01;988.9;;;25.7;41.6
62980;BME280;49075;53.988;27.678;2022-08-19T14:23:07;988.9;;;25.8;41.2
62980;BME280;49075;53.988;27.678;2022-08-19T14:28:35;988.9;;;25.8;41.1
62980;BME280;49075;53.988;27.678;2022-08-19T14:33:33;988.9;;;25.6;41.7
62980;BME280;49075;53.988;27.678;2022-08-19T14:38:15;988.9;;;25.3;42.5
62980;BME280;49075;53.988;27.678;2022-08-19T14:43:35;989;;;25.6;42.2
62980;BME280;49075;53.988;27.678;2022-08-19T14:48:07;989.1;;;25.4;42
62980;BME280;49075;53.988;27.678;2022-08-19T14:53:07;989;;;25.4;42.5
62980;BME280;49075;53.988;27.678;2022-08-19T14:58:01;989;;;25.3;42.9
62980;BME280;49075;53.988;27.678;2022-08-19T15:03:35;989;;;25.3;42.8
62980;BME280;49075;53.988;27.678;2022-08-19T15:08:36;989.1;;;25.1;42.8
62980;BME280;49075;53.988;27.678;2022-08-19T15:13:35;989;;;24.9;43.3
62980;BME280;49075;53.988;27.678;2022-08-19T15:18:07;989;;;24.7;44.1
62980;BME280;49075;53.988;27.678;2022-08-19T15:23:07;988.9;;;24.5;44.8
62980;BME280;49075;53.988;27.678;2022-08-19T15:28:11;988.9;;;24.5;44.6
62980;BME280;49075;53.988;27.678;2022-08-19T15:33:34;988.9;;;24.6;44.6
62980;BME280;49075;53.988;27.678;2022-08-19T15:38:07;988.8;;;24.5;44.2
62980;BME280;49075;53.988;27.678;2022-08-19T15:43:35;988.9;;;24.5;44.2
62980;BME280;49075;53.988;27.678;2022-08-19T15:48:36;989;;;24.4;44.6
62980;BME280;49075;53.988;27.678;2022-08-19T15:53:03;989;;;24.3;44.6
62980;BME280;49075;53.988;27.678;2022-08-19T15:58:12;989;;;24.2;44.8
62980;BME280;49075;53.988;27.678;2022-08-19T16:03:33;989.1;;;24.1;45.1
62980;BME280;49075;53.988;27.678;2022-08-19T16:08:35;989.1;;;24.2;44.9
62980;BME280;49075;53.988;27.678;2022-08-19T16:13:15;989.1;;;24.2;45
62980;BME280;49075;53.988;27.678;2022-08-19T16:18:01;989.2;;;24;45.6
62980;BME280;49075;53.988;27.678;2022-08-19T16:23:35;989.3;;;24;45.5
62980;BME280;49075;53.988;27.678;2022-08-19T16:28:07;989.3;;;23.9;45.4
62980;BME280;49075;53.988;27.678;2022-08-19T16:33:35;989.2;;;23.8;45.7
62980;BME280;49075;53.988;27.678;2022-08-19T16:38:07;989.2;;;23.7;46
62980;BME280;49075;53.988;27.678;2022-08-19T16:43:09;989.3;;;23.6;46.4
62980;BME280;49075;53.988;27.678;2022-08-19T16:48:35;989.4;;;23.5;46.8
62980;BME280;49075;53.988;27.678;2022-08-19T16:53:01;989.4;;;23.6;46.5
62980;BME280;49075;53.988;27.678;2022-08-19T16:58:13;989.4;;;23.6;46.9
62980;BME280;49075;53.988;27.678;2022-08-19T17:03:04;989.4;;;23.5;46.9
62980;BME280;49075;53.988;27.678;2022-08-19T17:08:18;989.3;;;23.3;47.8
62980;BME280;49075;53.988;27.678;2022-08-19T17:13:01;989.3;;;23.2;47.9
62980;BME280;49075;53.988;27.678;2022-08-19T17:18:17;989.5;;;23.1;48.3
62980;BME280;49075;53.988;27.678;2022-08-19T17:23:35;989.5;;;23.1;48.4
62980;BME280;49075;53.988;27.678;2022-08-19T17:28:08;989.5;;;23;48.8
62980;BME280;49075;53.988;27.678;2022-08-19T17:33:33;989.5;;;23;48.9
62980;BME280;49075;53.988;27.678;2022-08-19T17:38:33;989.5;;;22.9;49.4
62980;BME280;49075;53.988;27.678;2022-08-19T17:43:16;989.5;;;22.8;49.8
62980;BME280;49075;53.988;27.678;2022-08-19T17:48:35;989.5;;;22.6;50.7
62980;BME280;49075;53.988;27.678;2022-08-19T17:53:35;989.5;;;22.5;50.6
62980;BME280;49075;53.988;27.678;2022-08-19T17:58:35;989.6;;;22.4;51.1
62980;BME280;49075;53.988;27.678;2022-08-19T18:03:09;989.6;;;22.4;51.2
62980;BME280;49075;53.988;27.678;2022-08-19T18:08:07;989.6;;;22.3;51.8
62980;BME280;49075;53.988;27.678;2022-08-19T18:13:35;989.6;;;22.1;51.8
62980;BME280;49075;53.988;27.678;2022-08-19T18:18:07;989.5;;;22;52.4
62980;BME280;49075;53.988;27.678;2022-08-19T18:23:35;989.6;;;21.9;52.9
62980;BME280;49075;53.988;27.678;2022-08-19T18:28:13;989.7;;;21.8;53.2
62980;BME280;49075;53.988;27.678;2022-08-19T18:33:07;989.6;;;21.6;53.9
62980;BME280;49075;53.988;27.678;2022-08-19T18:38:07;989.7;;;21.5;54
62980;BME280;49075;53.988;27.678;2022-08-19T18:43:07;989.7;;;21.5;54.4
62980;BME280;49075;53.988;27.678;2022-08-19T18:48:01;989.6;;;21.5;54.3
62980;BME280;49075;53.988;27.678;2022-08-19T18:53:11;989.5;;;21.4;54.6
62980;BME280;49075;53.988;27.678;2022-08-19T18:58:07;989.5;;;21.4;54.6
62980;BME280;49075;53.988;27.678;2022-08-19T19:03:11;989.5;;;21.4;55
62980;BME280;49075;53.988;27.678;2022-08-19T19:08:35;989.5;;;21.3;55.1
62980;BME280;49075;53.988;27.678;2022-08-19T19:13:35;989.5;;;21.2;55.5
62980;BME280;49075;53.988;27.678;2022-08-19T19:18:09;989.4;;;21;55.9
62980;BME280;49075;53.988;27.678;2022-08-19T19:23:01;989.3;;;20.8;56.7
62980;BME280;49075;53.988;27.678;2022-08-19T19:28:36;989.3;;;20.7;56.6
62980;BME280;49075;53.988;27.678;2022-08-19T19:33:33;989.3;;;20.6;57.1
62980;BME280;49075;53.988;27.678;2022-08-19T19:38:33;989.3;;;20.6;57.1
62980;BME280;49075;53.988;27.678;2022-08-19T19:43:17;989.4;;;20.5;57.3
62980;BME280;49075;53.988;27.678;2022-08-19T19:48:07;989.3;;;20.5;57.1
62980;BME280;49075;53.988;27.678;2022-08-19T19:53:35;989.3;;;20.4;57.5
62980;BME280;49075;53.988;27.678;2022-08-19T19:58:07;989.3;;;20.5;57.6
62980;BME280;49075;53.988;27.678;2022-08-19T20:03:31;989.2;;;20.3;57.9
62980;BME280;49075;53.988;27.678;2022-08-19T20:08:11;989.3;;;20.3;57.8
62980;BME280;49075;53.988;27.678;2022-08-19T20:13:33;989.3;;;20.2;58.3
62980;BME280;49075;53.988;27.678;2022-08-19T20:18:07;989.4;;;20.1;58.4
62980;BME280;49075;53.988;27.678;2022-08-19T20:23:01;989.4;;;20;58.6
62980;BME280;49075;53.988;27.678;2022-08-19T20:28:33;989.4;;;19.9;58.8
62980;BME280;49075;53.988;27.678;2022-08-19T20:33:33;989.4;;;19.8;58.8
62980;BME280;49075;53.988;27.678;2022-08-19T20:38:11;989.3;;;19.7;59
62980;BME280;49075;53.988;27.678;2022-08-19T20:43:36;989.3;;;19.6;58.8
62980;BME280;49075;53.988;27.678;2022-08-19T20:48:07;989.4;;;19.5;59.3
62980;BME280;49075;53.988;27.678;2022-08-19T20:53:36;989.4;;;19.4;59.4
62980;BME280;49075;53.988;27.678;2022-08-19T20:58:35;989.4;;;19.2;59.9
62980;BME280;49075;53.988;27.678;2022-08-19T21:03:07;989.5;;;19.2;59.9
62980;BME280;49075;53.988;27.678;2022-08-19T21:08:07;989.5;;;19.2;60.2
62980;BME280;49075;53.988;27.678;2022-08-19T21:13:35;989.4;;;19.2;59.9
62980;BME280;49075;53.988;27.678;2022-08-19T21:18:13;989.4;;;19.1;60.3
62980;BME280;49075;53.988;27.678;2022-08-19T21:23:35;989.2;;;19;60.6
62980;BME280;49075;53.988;27.678;2022-08-19T21:28:17;989.2;;;19.1;60.5
62980;BME280;49075;53.988;27.678;2022-08-19T21:33:09;989.2;;;19.2;60.5
62980;BME280;49075;53.988;27.678;2022-08-19T21:38:03;989.1;;;19.2;60.3
62980;BME280;49075;53.988;27.678;2022-08-19T21:43:35;989;;;19.2;60.5
62980;BME280;49075;53.988;27.678;2022-08-19T21:48:33;989;;;19.2;60.3
62980;BME280;49075;53.988;27.678;2022-08-19T21:53:15;989;;;19.1;60.7
62980;BME280;49075;53.988;27.678;2022-08-19T21:58:05;989;;;19;60.8
62980;BME280;49075;53.988;27.678;2022-08-19T22:03:34;989;;;18.9;61.2
62980;BME280;49075;53.988;27.678;2022-08-19T22:08:05;988.9;;;18.8;61
62980;BME280;49075;53.988;27.678;2022-08-19T22:13:34;989;;;18.8;61.2
62980;BME280;49075;53.988;27.678;2022-08-19T22:18:35;989;;;18.8;61
62980;BME280;49075;53.988;27.678;2022-08-19T22:23:07;988.9;;;18.8;61.2
62980;BME280;49075;53.988;27.678;2022-08-19T22:28:06;989;;;18.7;61.1
62980;BME280;49075;53.988;27.678;2022-08-19T22:33:27;989;;;18.5;61.7
62980;BME280;49075;53.988;27.678;2022-08-19T22:38:10;988.9;;;18.4;61.9
62980;BME280;49075;53.988;27.678;2022-08-19T22:43:31;988.9;;;18.3;62.1
62980;BME280;49075;53.988;27.678;2022-08-19T22:48:31;988.8;;;18.2;62.8
62980;BME280;49075;53.988;27.678;2022-08-19T22:53:32;988.8;;;18.1;63
62980;BME280;49075;53.988;27.678;2022-08-19T22:58:11;988.8;;;18;63.3
62980;BME280;49075;53.988;27.678;2022-08-19T23:03:29;988.8;;;18;63.5
62980;BME280;49075;53.988;27.678;2022-08-19T23:08:29;988.8;;;17.9;63.5
62980;BME280;49075;53.988;27.678;2022-08-19T23:13:05;988.8;;;17.9;63.7
62980;BME280;49075;53.988;27.678;2022-08-19T23:18:31;988.7;;;17.9;63.8
62980;BME280;49075;53.988;27.678;2022-08-19T23:23:09;988.7;;;17.8;64.1
62980;BME280;49075;53.988;27.678;2022-08-19T23:28:09;988.8;;;17.8;63.9
62980;BME280;49075;53.988;27.678;2022-08-19T23:33:31;988.8;;;17.7;64.3
62980;BME280;49075;53.988;27.678;2022-08-19T23:38:31;988.8;;;17.7;64.1
62980;BME280;49075;53.988;27.678;2022-08-19T23:43:32;988.8;;;17.6;64.5
62980;BME280;49075;53.988;27.678;2022-08-19T23:48:06;988.8;;;17.6;64.4
62980;BME280;49075;53.988;27.678;2022-08-19T23:53:31;988.8;;;17.6;64.6
62980;BME280;49075;53.988;27.678;2022-08-19T23:58:12;988.8;;;17.6;64.5
